createdAt,value
2023-04-27T00:00:39.537Z,34.23
2023-04-27T00:01:39.617Z,34.23
2023-04-27T00:02:39.800Z,34.23
2023-04-27T00:03:39.938Z,34.23
2023-04-27T00:04:39.956Z,34.23
2023-04-27T00:05:40.078Z,34.24
2023-04-27T00:06:39.861Z,34.22
2023-04-27T00:07:39.933Z,34.24
2023-04-27T00:08:40.004Z,34.23
2023-04-27T00:09:40.070Z,34.24
2023-04-27T00:10:40.105Z,34.25
2023-04-27T00:11:40.157Z,34.26
2023-04-27T00:12:40.222Z,34.25
2023-04-27T00:13:40.304Z,34.26
2023-04-27T00:14:40.389Z,34.26
2023-04-27T00:15:40.390Z,34.26
2023-04-27T00:16:40.527Z,34.25
2023-04-27T00:17:40.567Z,34.28
2023-04-27T00:18:40.597Z,34.27
2023-04-27T00:19:40.647Z,34.28
2023-04-27T00:20:40.705Z,34.25
2023-04-27T00:21:40.745Z,34.28
2023-04-27T00:22:40.811Z,34.27
2023-04-27T00:23:40.893Z,34.27
2023-04-27T00:24:40.929Z,34.27
2023-04-27T00:25:40.998Z,34.28
2023-04-27T00:26:41.064Z,34.28
2023-04-27T00:27:41.120Z,34.28
2023-04-27T00:28:41.193Z,34.29
2023-04-27T00:29:41.235Z,34.29
2023-04-27T00:30:41.287Z,34.27
2023-04-27T00:31:41.365Z,34.30
2023-04-27T00:32:41.566Z,34.30
2023-04-27T00:33:41.463Z,34.29
2023-04-27T00:34:41.513Z,34.30
2023-04-27T00:35:41.593Z,34.31
2023-04-27T00:36:41.632Z,34.28
2023-04-27T00:37:41.697Z,34.30
2023-04-27T00:38:41.757Z,34.28
2023-04-27T00:39:41.815Z,34.31
2023-04-27T00:40:41.910Z,34.31
2023-04-27T00:41:41.973Z,34.31
2023-04-27T00:42:41.978Z,34.33
2023-04-27T00:43:42.044Z,34.33
2023-04-27T00:44:42.106Z,34.31
2023-04-27T00:45:42.203Z,34.32
2023-04-27T00:46:42.232Z,34.31
2023-04-27T00:47:42.354Z,34.31
2023-04-27T00:48:42.385Z,34.33
2023-04-27T00:49:42.352Z,34.32
2023-04-27T00:50:42.382Z,34.34
2023-04-27T00:51:42.395Z,34.32
2023-04-27T00:52:42.453Z,34.33
2023-04-27T00:53:42.513Z,34.35
2023-04-27T00:54:42.570Z,34.34
2023-04-27T00:55:42.643Z,34.34
2023-04-27T00:56:42.691Z,34.34
2023-04-27T00:57:42.747Z,34.36
2023-04-27T00:58:42.787Z,34.33
2023-04-27T00:59:42.851Z,34.35
2023-04-27T01:00:42.943Z,34.33
2023-04-27T01:01:42.997Z,34.35
2023-04-27T01:02:43.135Z,34.33
2023-04-27T01:03:43.206Z,34.35
2023-04-27T01:04:43.163Z,34.36
2023-04-27T01:05:43.243Z,34.36
2023-04-27T01:06:43.246Z,34.37
2023-04-27T01:07:43.334Z,34.36
2023-04-27T01:08:43.364Z,34.38
2023-04-27T01:09:43.426Z,34.38
2023-04-27T01:10:43.486Z,34.40
2023-04-27T01:11:43.559Z,34.37
2023-04-27T01:12:43.614Z,34.39
2023-04-27T01:13:43.683Z,34.38
2023-04-27T01:14:43.762Z,34.39
2023-04-27T01:15:43.795Z,34.38
2023-04-27T01:16:43.876Z,34.37
2023-04-27T01:17:43.928Z,34.40
2023-04-27T01:18:43.966Z,34.41
2023-04-27T01:19:44.010Z,34.39
2023-04-27T01:20:44.076Z,34.40
2023-04-27T01:21:44.170Z,34.40
2023-04-27T01:22:44.209Z,34.41
2023-04-27T01:23:44.278Z,34.39
2023-04-27T01:24:44.318Z,34.39
2023-04-27T01:25:44.400Z,34.40
2023-04-27T01:26:44.478Z,34.40
2023-04-27T01:27:44.516Z,34.43
2023-04-27T01:28:44.569Z,34.42
2023-04-27T01:29:44.627Z,34.42
2023-04-27T01:30:44.711Z,34.42
2023-04-27T01:31:44.825Z,34.40
2023-04-27T01:32:44.892Z,34.43
2023-04-27T01:33:44.902Z,34.43
2023-04-27T01:34:44.964Z,34.42
2023-04-27T01:35:44.987Z,34.44
2023-04-27T01:36:45.067Z,34.43
2023-04-27T01:37:45.169Z,34.42
2023-04-27T01:38:45.181Z,34.44
2023-04-27T01:39:45.298Z,34.42
2023-04-27T01:40:45.287Z,34.43
2023-04-27T01:41:45.378Z,34.45
2023-04-27T01:42:45.393Z,34.44
2023-04-27T01:43:45.457Z,34.43
2023-04-27T01:44:45.550Z,34.45
2023-04-27T01:45:45.610Z,34.43
2023-04-27T01:46:45.702Z,34.44
2023-04-27T01:47:45.744Z,34.44
2023-04-27T01:48:45.780Z,34.45
2023-04-27T01:49:45.806Z,34.46
2023-04-27T01:50:45.857Z,34.45
2023-04-27T01:51:45.904Z,34.43
2023-04-27T01:52:45.971Z,34.46
2023-04-27T01:53:46.031Z,34.48
2023-04-27T01:54:46.127Z,34.45
2023-04-27T01:55:46.288Z,34.46
2023-04-27T01:56:46.194Z,34.46
2023-04-27T01:57:46.253Z,34.46
2023-04-27T01:58:46.365Z,34.47
2023-04-27T01:59:46.374Z,34.48
2023-04-27T02:00:46.429Z,34.50
2023-04-27T02:01:46.541Z,34.51
2023-04-27T02:02:46.632Z,34.50
2023-04-27T02:03:46.765Z,34.48
2023-04-27T02:04:46.759Z,34.50
2023-04-27T02:05:46.720Z,34.51
2023-04-27T02:06:46.818Z,34.50
2023-04-27T02:07:46.854Z,34.50
2023-04-27T02:08:46.939Z,34.50
2023-04-27T02:09:46.992Z,34.50
2023-04-27T02:10:47.040Z,34.50
2023-04-27T02:11:47.104Z,34.51
2023-04-27T02:12:47.158Z,34.50
2023-04-27T02:13:47.204Z,34.52
2023-04-27T02:14:47.307Z,34.52
2023-04-27T02:15:47.403Z,34.52
2023-04-27T02:16:47.389Z,34.52
2023-04-27T02:17:47.523Z,34.52
2023-04-27T02:18:47.480Z,34.54
2023-04-27T02:19:47.512Z,34.52
2023-04-27T02:20:47.514Z,34.53
2023-04-27T02:21:47.518Z,34.54
2023-04-27T02:22:47.551Z,34.53
2023-04-27T02:23:47.622Z,34.53
2023-04-27T02:24:47.729Z,34.54
2023-04-27T02:25:47.764Z,34.55
2023-04-27T02:26:47.801Z,34.54
2023-04-27T02:27:47.881Z,34.53
2023-04-27T02:28:47.915Z,34.55
2023-04-27T02:29:48.005Z,34.54
2023-04-27T02:30:48.016Z,34.55
2023-04-27T02:31:48.125Z,34.57
2023-04-27T02:32:48.193Z,34.56
2023-04-27T02:33:48.195Z,34.56
2023-04-27T02:34:48.284Z,34.55
2023-04-27T02:35:48.329Z,34.55
2023-04-27T02:36:48.403Z,34.58
2023-04-27T02:37:48.430Z,34.58
2023-04-27T02:38:48.472Z,34.61
2023-04-27T02:39:48.534Z,34.58
2023-04-27T02:40:48.538Z,34.56
2023-04-27T02:41:48.598Z,34.60
2023-04-27T02:42:48.643Z,34.56
2023-04-27T02:43:48.686Z,34.57
2023-04-27T02:44:48.794Z,34.57
2023-04-27T02:45:48.819Z,34.59
2023-04-27T02:46:48.902Z,34.58
2023-04-27T02:47:48.974Z,34.59
2023-04-27T02:48:49.772Z,34.60
2023-04-27T02:49:49.062Z,34.60
2023-04-27T02:50:49.073Z,34.60
2023-04-27T02:51:49.126Z,34.60
2023-04-27T02:52:49.181Z,34.60
2023-04-27T02:53:49.224Z,34.62
2023-04-27T02:54:49.328Z,34.60
2023-04-27T02:55:49.348Z,34.60
2023-04-27T02:56:49.410Z,34.62
2023-04-27T02:57:49.456Z,34.60
2023-04-27T02:58:49.505Z,34.60
2023-04-27T02:59:49.581Z,34.60
2023-04-27T03:00:49.655Z,34.61
2023-04-27T03:01:49.639Z,34.60
2023-04-27T03:02:49.759Z,34.61
2023-04-27T03:03:49.934Z,34.63
2023-04-27T03:04:49.832Z,34.61
2023-04-27T03:05:49.765Z,34.61
2023-04-27T03:06:49.797Z,34.60
2023-04-27T03:07:49.882Z,34.62
2023-04-27T03:08:49.925Z,34.61
2023-04-27T03:09:50.001Z,34.64
2023-04-27T03:10:50.007Z,34.62
2023-04-27T03:11:50.069Z,34.64
2023-04-27T03:12:50.116Z,34.65
2023-04-27T03:13:50.169Z,34.62
2023-04-27T03:14:50.276Z,34.63
2023-04-27T03:15:50.265Z,34.63
2023-04-27T03:16:50.442Z,34.61
2023-04-27T03:17:50.427Z,34.64
2023-04-27T03:18:50.439Z,34.64
2023-04-27T03:19:50.540Z,34.63
2023-04-27T03:20:50.565Z,34.65
2023-04-27T03:21:50.614Z,34.64
2023-04-27T03:22:50.704Z,34.65
2023-04-27T03:23:50.749Z,34.65
2023-04-27T03:24:50.820Z,34.65
2023-04-27T03:25:50.850Z,34.66
2023-04-27T03:26:50.846Z,34.66
2023-04-27T03:27:50.929Z,34.65
2023-04-27T03:28:50.934Z,34.67
2023-04-27T03:29:50.974Z,34.67
2023-04-27T03:30:51.039Z,34.66
2023-04-27T03:31:51.101Z,34.66
2023-04-27T03:32:51.230Z,34.67
2023-04-27T03:33:51.154Z,34.67
2023-04-27T03:34:51.223Z,34.64
2023-04-27T03:35:51.218Z,34.68
2023-04-27T03:36:51.298Z,34.67
2023-04-27T03:37:51.330Z,34.67
2023-04-27T03:38:51.349Z,34.68
2023-04-27T03:39:51.431Z,34.68
2023-04-27T03:40:51.575Z,34.70
2023-04-27T03:41:51.465Z,34.67
2023-04-27T03:42:51.536Z,34.69
2023-04-27T03:43:51.578Z,34.69
2023-04-27T03:44:51.641Z,34.68
2023-04-27T03:45:51.690Z,34.70
2023-04-27T03:46:51.670Z,34.69
2023-04-27T03:47:51.785Z,34.70
2023-04-27T03:48:53.340Z,34.71
2023-04-27T03:49:51.769Z,34.73
2023-04-27T03:50:51.811Z,34.71
2023-04-27T03:51:51.807Z,34.71
2023-04-27T03:52:51.862Z,34.72
2023-04-27T03:53:51.891Z,34.73
2023-04-27T03:54:51.924Z,34.72
2023-04-27T03:55:51.931Z,34.76
2023-04-27T03:56:51.935Z,34.74
2023-04-27T03:57:51.962Z,34.73
2023-04-27T03:58:51.988Z,34.75
2023-04-27T03:59:52.030Z,34.74
2023-04-27T04:00:52.007Z,34.77
2023-04-27T04:01:52.042Z,34.79
2023-04-27T04:02:52.275Z,34.76
2023-04-27T04:03:52.252Z,34.77
2023-04-27T04:04:52.233Z,34.75
2023-04-27T04:05:52.185Z,34.78
2023-04-27T04:06:52.212Z,34.77
2023-04-27T04:07:52.258Z,34.79
2023-04-27T04:08:52.310Z,34.76
2023-04-27T04:09:52.329Z,34.78
2023-04-27T04:10:52.354Z,34.77
2023-04-27T04:11:52.452Z,34.79
2023-04-27T04:12:52.431Z,34.81
2023-04-27T04:13:52.468Z,34.79
2023-04-27T04:14:52.469Z,34.79
2023-04-27T04:15:52.540Z,34.79
2023-04-27T04:16:52.562Z,34.78
2023-04-27T04:17:52.615Z,34.79
2023-04-27T04:18:52.574Z,34.78
2023-04-27T04:19:52.606Z,34.80
2023-04-27T04:20:52.639Z,34.79
2023-04-27T04:21:52.657Z,34.78
2023-04-27T04:22:52.712Z,34.77
2023-04-27T04:23:52.710Z,34.80
2023-04-27T04:24:52.717Z,34.80
2023-04-27T04:25:52.732Z,34.81
2023-04-27T04:26:52.762Z,34.83
2023-04-27T04:27:52.790Z,34.84
2023-04-27T04:28:52.828Z,34.81
2023-04-27T04:29:52.846Z,34.81
2023-04-27T04:30:52.977Z,34.83
2023-04-27T04:31:52.948Z,34.83
2023-04-27T04:32:53.055Z,34.83
2023-04-27T04:33:52.923Z,34.83
2023-04-27T04:34:52.946Z,34.84
2023-04-27T04:35:52.965Z,34.83
2023-04-27T04:36:52.986Z,34.84
2023-04-27T04:37:52.995Z,34.82
2023-04-27T04:38:53.016Z,34.83
2023-04-27T04:39:53.033Z,34.85
2023-04-27T04:40:53.062Z,34.83
2023-04-27T04:41:53.118Z,34.81
2023-04-27T04:42:53.102Z,34.84
2023-04-27T04:43:53.101Z,34.83
2023-04-27T04:44:53.119Z,34.86
2023-04-27T04:45:53.103Z,34.85
2023-04-27T04:46:53.171Z,34.86
2023-04-27T04:47:53.124Z,34.83
2023-04-27T04:48:54.630Z,34.86
2023-04-27T04:49:53.118Z,34.84
2023-04-27T04:50:53.171Z,34.86
2023-04-27T04:51:53.174Z,34.90
2023-04-27T04:52:53.210Z,34.88
2023-04-27T04:53:53.200Z,34.86
2023-04-27T04:54:53.234Z,34.90
2023-04-27T04:55:53.219Z,34.85
2023-04-27T04:56:53.244Z,34.86
2023-04-27T04:57:53.260Z,34.88
2023-04-27T04:58:53.220Z,34.88
2023-04-27T04:59:53.243Z,34.87
2023-04-27T05:00:53.230Z,34.84
2023-04-27T05:01:53.326Z,34.89
2023-04-27T05:02:53.425Z,34.88
2023-04-27T05:03:53.482Z,34.86
2023-04-27T05:04:53.413Z,34.86
2023-04-27T05:05:53.346Z,34.87
2023-04-27T05:06:53.369Z,34.84
2023-04-27T05:07:53.389Z,34.85
2023-04-27T05:08:53.422Z,34.87
2023-04-27T05:09:53.438Z,34.85
2023-04-27T05:10:53.451Z,34.86
2023-04-27T05:11:53.450Z,34.85
2023-04-27T05:12:53.524Z,34.87
2023-04-27T05:13:53.482Z,34.88
2023-04-27T05:14:53.475Z,34.85
2023-04-27T05:15:53.508Z,34.86
2023-04-27T05:16:53.516Z,34.86
2023-04-27T05:17:53.533Z,34.89
2023-04-27T05:18:53.496Z,34.87
2023-04-27T05:19:53.830Z,34.88
2023-04-27T05:20:53.532Z,34.89
2023-04-27T05:21:53.567Z,34.88
2023-04-27T05:22:53.555Z,34.91
2023-04-27T05:23:53.699Z,34.91
2023-04-27T05:24:53.613Z,34.90
2023-04-27T05:25:53.879Z,34.88
2023-04-27T05:26:53.596Z,34.88
2023-04-27T05:27:53.556Z,34.86
2023-04-27T05:28:53.581Z,34.86
2023-04-27T05:29:53.566Z,34.86
2023-04-27T05:30:53.602Z,34.83
2023-04-27T05:31:53.654Z,34.83
2023-04-27T05:32:53.750Z,34.79
2023-04-27T05:33:53.749Z,34.77
2023-04-27T05:34:53.798Z,34.75
2023-04-27T05:35:53.818Z,34.94
2023-04-27T05:36:53.864Z,35.20
2023-04-27T05:37:53.922Z,35.11
2023-04-27T05:38:54.050Z,35.11
2023-04-27T05:39:54.053Z,35.31
2023-04-27T05:40:55.518Z,35.76
2023-04-27T05:41:54.206Z,36.45
2023-04-27T05:42:54.460Z,36.68
2023-04-27T05:43:54.266Z,36.54
2023-04-27T05:44:54.336Z,36.72
2023-04-27T05:45:54.387Z,37.43
2023-04-27T05:46:54.457Z,37.78
2023-04-27T05:47:54.474Z,37.42
2023-04-27T05:48:54.471Z,37.68
2023-04-27T05:49:54.524Z,37.95
2023-04-27T05:50:54.592Z,38.05
2023-04-27T05:51:54.592Z,38.05
2023-04-27T05:52:55.402Z,38.21
2023-04-27T05:53:54.682Z,38.38
2023-04-27T05:54:54.694Z,38.44
2023-04-27T05:55:54.678Z,38.65
2023-04-27T05:56:54.685Z,38.77
2023-04-27T05:58:06.931Z,39.12
2023-04-27T05:58:55.735Z,39.48
2023-04-27T05:59:54.682Z,39.39
2023-04-27T06:00:54.726Z,39.50
2023-04-27T06:01:54.754Z,39.42
2023-04-27T06:02:54.754Z,39.49
2023-04-27T06:03:54.687Z,40.02
2023-04-27T06:04:54.692Z,39.90
2023-04-27T06:05:56.234Z,39.89
2023-04-27T06:06:54.625Z,40.48
2023-04-27T06:07:54.620Z,40.37
2023-04-27T06:08:54.637Z,40.38
2023-04-27T06:09:54.613Z,40.83
2023-04-27T06:10:54.667Z,41.48
2023-04-27T06:11:54.767Z,40.89
2023-04-27T06:12:54.719Z,41.49
2023-04-27T06:13:54.689Z,41.44
2023-04-27T06:14:55.379Z,41.18
2023-04-27T06:15:54.672Z,41.43
2023-04-27T06:16:54.684Z,41.79
2023-04-27T06:17:54.612Z,42.09
2023-04-27T06:18:54.552Z,42.06
2023-04-27T06:19:55.391Z,41.95
2023-04-27T06:20:54.546Z,42.43
2023-04-27T06:21:54.620Z,42.10
2023-04-27T06:22:54.604Z,42.07
2023-04-27T06:23:54.518Z,42.19
2023-04-27T06:24:54.525Z,42.26
2023-04-27T06:25:54.508Z,43.31
2023-04-27T06:26:54.513Z,42.91
2023-04-27T06:27:54.494Z,43.10
2023-04-27T06:28:54.481Z,42.75
2023-04-27T06:29:54.561Z,42.92
2023-04-27T06:30:54.500Z,42.82
2023-04-27T06:31:54.503Z,43.04
2023-04-27T06:32:54.497Z,42.94
2023-04-27T06:33:54.464Z,43.20
2023-04-27T06:34:54.459Z,43.27
2023-04-27T06:35:54.923Z,43.28
2023-04-27T06:36:54.424Z,43.21
2023-04-27T06:37:54.426Z,43.23
2023-04-27T06:38:54.450Z,43.11
2023-04-27T06:39:54.420Z,42.98
2023-04-27T06:40:54.405Z,42.81
2023-04-27T06:41:54.405Z,42.66
2023-04-27T06:42:54.892Z,42.52
2023-04-27T06:43:55.804Z,42.40
2023-04-27T06:44:54.520Z,42.33
2023-04-27T06:45:54.657Z,42.37
2023-04-27T06:46:54.650Z,42.32
2023-04-27T06:47:54.773Z,42.22
2023-04-27T06:48:54.761Z,42.22
2023-04-27T06:49:54.834Z,42.19
2023-04-27T06:50:54.926Z,42.19
2023-04-27T06:51:54.971Z,42.20
2023-04-27T06:52:55.029Z,42.18
2023-04-27T06:53:55.076Z,42.12
2023-04-27T06:54:55.132Z,42.12
2023-04-27T06:55:55.180Z,42.07
2023-04-27T06:56:55.244Z,42.06
2023-04-27T06:57:55.293Z,42.10
2023-04-27T06:58:55.272Z,42.11
2023-04-27T06:59:55.290Z,42.06
2023-04-27T07:00:55.291Z,42.12
2023-04-27T07:01:55.418Z,42.09
2023-04-27T07:02:55.367Z,42.09
2023-04-27T07:03:55.501Z,42.05
2023-04-27T07:04:55.387Z,42.00
2023-04-27T07:05:55.326Z,42.11
2023-04-27T07:06:55.315Z,42.06
2023-04-27T07:07:55.309Z,42.01
2023-04-27T07:08:55.414Z,41.99
2023-04-27T07:09:55.299Z,41.99
2023-04-27T07:10:55.306Z,41.91
2023-04-27T07:11:55.356Z,41.90
2023-04-27T07:12:55.339Z,41.91
2023-04-27T07:13:55.647Z,41.99
2023-04-27T07:14:55.278Z,41.97
2023-04-27T07:15:55.335Z,41.94
2023-04-27T07:16:55.282Z,41.87
2023-04-27T07:17:55.420Z,41.76
2023-04-27T07:18:55.306Z,41.78
2023-04-27T07:19:55.318Z,41.82
2023-04-27T07:20:55.326Z,41.82
2023-04-27T07:21:55.318Z,41.79
2023-04-27T07:22:55.341Z,41.77
2023-04-27T07:23:56.193Z,41.74
2023-04-27T07:24:55.329Z,41.67
2023-04-27T07:25:55.426Z,41.67
2023-04-27T07:26:55.323Z,41.64
2023-04-27T07:27:55.391Z,41.66
2023-04-27T07:28:55.351Z,41.61
2023-04-27T07:29:55.353Z,41.61
2023-04-27T07:30:55.407Z,41.61
2023-04-27T07:31:55.389Z,41.56
2023-04-27T07:32:55.405Z,41.54
2023-04-27T07:33:55.447Z,41.76
2023-04-27T07:34:55.426Z,42.34
2023-04-27T07:35:55.456Z,42.55
2023-04-27T07:36:55.446Z,43.01
2023-04-27T07:37:55.405Z,42.58
2023-04-27T07:38:55.415Z,42.05
2023-04-27T07:39:55.393Z,41.97
2023-04-27T07:40:55.430Z,41.80
2023-04-27T07:41:55.416Z,41.58
2023-04-27T07:42:55.456Z,42.64
2023-04-27T07:43:55.515Z,42.72
2023-04-27T07:44:55.469Z,42.55
2023-04-27T07:45:55.941Z,42.87
2023-04-27T07:46:55.480Z,43.00
2023-04-27T07:47:56.970Z,43.12
2023-04-27T07:48:55.923Z,43.09
2023-04-27T07:49:55.470Z,43.08
2023-04-27T07:50:55.965Z,43.05
2023-04-27T07:51:55.467Z,42.99
2023-04-27T07:52:55.433Z,42.92
2023-04-27T07:53:55.430Z,42.75
2023-04-27T07:54:55.406Z,42.91
2023-04-27T07:55:55.437Z,42.84
2023-04-27T07:56:55.474Z,42.69
2023-04-27T07:57:55.410Z,42.64
2023-04-27T07:58:55.960Z,42.66
2023-04-27T07:59:55.463Z,42.44
2023-04-27T08:00:55.373Z,42.30
2023-04-27T08:02:04.112Z,42.13
2023-04-27T08:02:56.756Z,42.02
2023-04-27T08:03:56.159Z,41.99
2023-04-27T08:04:55.677Z,42.38
2023-04-27T08:05:55.735Z,42.08
2023-04-27T08:06:55.833Z,41.89
2023-04-27T08:07:55.392Z,41.77
2023-04-27T08:08:55.341Z,41.76
2023-04-27T08:09:55.310Z,41.70
2023-04-27T08:10:55.291Z,41.80
2023-04-27T08:11:55.291Z,41.71
2023-04-27T08:12:55.330Z,41.71
2023-04-27T08:13:55.387Z,41.63
2023-04-27T08:14:55.428Z,41.55
2023-04-27T08:15:55.491Z,41.50
2023-04-27T08:16:55.610Z,41.84
2023-04-27T08:17:55.632Z,41.93
2023-04-27T08:18:55.703Z,41.96
2023-04-27T08:19:55.672Z,41.99
2023-04-27T08:20:55.730Z,41.85
2023-04-27T08:21:55.779Z,41.93
2023-04-27T08:22:55.812Z,41.77
2023-04-27T08:23:55.920Z,41.64
2023-04-27T08:24:55.895Z,41.66
2023-04-27T08:25:55.968Z,41.72
2023-04-27T08:26:55.959Z,41.74
2023-04-27T08:27:56.038Z,41.76
2023-04-27T08:28:56.053Z,41.79
2023-04-27T08:29:56.098Z,42.15
2023-04-27T08:30:56.510Z,41.79
2023-04-27T08:31:56.856Z,41.94
2023-04-27T08:32:56.292Z,42.13
2023-04-27T08:33:56.278Z,42.00
2023-04-27T08:34:56.313Z,42.16
2023-04-27T08:35:56.503Z,41.59
2023-04-27T08:36:56.446Z,41.44
2023-04-27T08:37:56.507Z,41.42
2023-04-27T08:38:56.568Z,42.38
2023-04-27T08:39:56.556Z,42.21
2023-04-27T08:40:57.219Z,41.49
2023-04-27T08:41:56.550Z,41.08
2023-04-27T08:42:56.555Z,40.43
2023-04-27T08:43:57.964Z,40.58
2023-04-27T08:44:56.553Z,40.93
2023-04-27T08:45:56.593Z,41.35
2023-04-27T08:46:56.579Z,41.25
2023-04-27T08:47:56.658Z,41.14
2023-04-27T08:48:56.667Z,41.20
2023-04-27T08:49:56.598Z,41.24
2023-04-27T08:50:56.664Z,41.23
2023-04-27T08:51:56.491Z,41.24
2023-04-27T08:52:56.491Z,41.22
2023-04-27T08:53:56.681Z,41.19
2023-04-27T08:54:56.610Z,41.20
2023-04-27T08:55:56.481Z,41.10
2023-04-27T08:56:56.636Z,41.06
2023-04-27T08:57:56.449Z,41.01
2023-04-27T08:58:56.622Z,41.00
2023-04-27T08:59:56.484Z,41.00
2023-04-27T09:00:56.533Z,40.99
2023-04-27T09:01:56.446Z,40.95
2023-04-27T09:02:56.708Z,40.89
2023-04-27T09:03:56.736Z,40.85
2023-04-27T09:04:56.662Z,40.80
2023-04-27T09:06:03.453Z,40.70
2023-04-27T09:06:57.386Z,40.66
2023-04-27T09:07:56.413Z,40.77
2023-04-27T09:08:56.420Z,40.79
2023-04-27T09:09:56.421Z,40.67
2023-04-27T09:10:56.484Z,40.59
2023-04-27T09:11:56.356Z,40.57
2023-04-27T09:12:56.419Z,40.53
2023-04-27T09:13:56.346Z,40.52
2023-04-27T09:14:56.365Z,40.56
2023-04-27T09:15:56.430Z,40.45
2023-04-27T09:16:56.612Z,40.39
2023-04-27T09:17:56.630Z,40.35
2023-04-27T09:18:56.645Z,40.36
2023-04-27T09:19:56.644Z,40.32
2023-04-27T09:20:56.698Z,40.24
2023-04-27T09:21:56.768Z,40.23
2023-04-27T09:22:56.809Z,40.18
2023-04-27T09:23:56.867Z,40.12
2023-04-27T09:24:56.931Z,40.08
2023-04-27T09:25:56.973Z,40.28
2023-04-27T09:26:59.002Z,39.77
2023-04-27T09:27:57.024Z,39.63
2023-04-27T09:28:57.051Z,39.63
2023-04-27T09:29:57.028Z,39.38
2023-04-27T09:30:57.022Z,39.33
2023-04-27T09:31:57.028Z,39.18
2023-04-27T09:32:57.093Z,39.23
2023-04-27T09:33:57.033Z,39.24
2023-04-27T09:34:56.990Z,37.91
2023-04-27T09:35:56.993Z,37.97
2023-04-27T09:36:56.983Z,38.59
2023-04-27T09:37:56.950Z,37.88
2023-04-27T09:38:56.960Z,37.90
2023-04-27T09:39:56.962Z,37.98
2023-04-27T09:40:56.958Z,38.33
2023-04-27T09:41:56.958Z,38.33
2023-04-27T09:42:57.083Z,38.17
2023-04-27T09:43:57.931Z,37.98
2023-04-27T09:44:57.134Z,37.79
2023-04-27T09:45:56.964Z,37.79
2023-04-27T09:46:56.907Z,37.54
2023-04-27T09:47:56.917Z,37.57
2023-04-27T09:48:56.937Z,37.67
2023-04-27T09:49:56.885Z,37.70
2023-04-27T09:50:56.884Z,37.61
2023-04-27T09:51:56.936Z,37.72
2023-04-27T09:52:56.868Z,37.70
2023-04-27T09:53:56.901Z,37.56
2023-04-27T09:54:56.845Z,37.81
2023-04-27T09:55:56.839Z,37.43
2023-04-27T09:56:56.839Z,37.49
2023-04-27T09:57:56.861Z,37.51
2023-04-27T09:58:58.800Z,37.48
2023-04-27T09:59:56.839Z,37.53
2023-04-27T10:00:56.915Z,37.47
2023-04-27T10:01:56.827Z,37.53
2023-04-27T10:02:57.633Z,37.38
2023-04-27T10:03:56.884Z,37.56
2023-04-27T10:04:56.886Z,37.51
2023-04-27T10:05:56.771Z,37.49
2023-04-27T10:06:57.806Z,37.53
2023-04-27T10:07:56.750Z,37.55
2023-04-27T10:08:56.764Z,37.65
2023-04-27T10:09:56.768Z,37.70
2023-04-27T10:10:56.741Z,37.58
2023-04-27T10:11:56.744Z,37.72
2023-04-27T10:12:56.770Z,37.69
2023-04-27T10:13:56.839Z,37.70
2023-04-27T10:14:56.918Z,37.52
2023-04-27T10:15:56.968Z,37.51
2023-04-27T10:16:57.142Z,37.69
2023-04-27T10:17:57.139Z,37.80
2023-04-27T10:18:57.201Z,37.97
2023-04-27T10:19:58.248Z,38.21
2023-04-27T10:20:57.287Z,38.22
2023-04-27T10:21:57.342Z,38.63
2023-04-27T10:22:57.363Z,38.63
2023-04-27T10:23:57.453Z,38.62
2023-04-27T10:24:57.458Z,38.83
2023-04-27T10:25:57.517Z,39.02
2023-04-27T10:26:57.549Z,38.74
2023-04-27T10:27:57.630Z,38.29
2023-04-27T10:28:57.640Z,38.09
2023-04-27T10:29:57.710Z,37.89
2023-04-27T10:30:57.774Z,37.57
2023-04-27T10:31:57.810Z,37.50
2023-04-27T10:32:57.933Z,37.34
2023-04-27T10:33:57.992Z,37.70
2023-04-27T10:34:58.000Z,37.90
2023-04-27T10:35:58.173Z,37.76
2023-04-27T10:36:58.172Z,37.74
2023-04-27T10:37:58.187Z,38.14
2023-04-27T10:38:58.234Z,38.12
2023-04-27T10:39:58.306Z,38.18
2023-04-27T10:40:58.361Z,38.27
2023-04-27T10:41:58.500Z,38.30
2023-04-27T10:42:58.479Z,38.22
2023-04-27T10:43:58.549Z,38.25
2023-04-27T10:44:58.558Z,38.39
2023-04-27T10:45:58.596Z,38.51
2023-04-27T10:46:58.641Z,38.57
2023-04-27T10:47:58.737Z,38.46
2023-04-27T10:48:58.780Z,38.56
2023-04-27T10:49:58.782Z,38.60
2023-04-27T10:50:58.815Z,38.50
2023-04-27T10:51:58.902Z,38.57
2023-04-27T10:53:00.859Z,38.65
2023-04-27T10:53:58.940Z,38.53
2023-04-27T10:54:58.970Z,38.54
2023-04-27T10:55:59.030Z,38.63
2023-04-27T10:56:59.143Z,38.49
2023-04-27T10:57:59.116Z,38.58
2023-04-27T10:58:59.133Z,38.66
2023-04-27T10:59:59.299Z,38.70
2023-04-27T11:00:59.192Z,38.62
2023-04-27T11:01:59.327Z,38.70
2023-04-27T11:02:59.362Z,38.55
2023-04-27T11:03:59.296Z,38.67
2023-04-27T11:04:59.367Z,38.56
2023-04-27T11:05:59.396Z,38.54
2023-04-27T11:06:59.490Z,38.56
2023-04-27T11:07:59.457Z,38.70
2023-04-27T11:08:59.556Z,38.61
2023-04-27T11:09:59.578Z,38.70
2023-04-27T11:10:59.693Z,38.56
2023-04-27T11:11:59.683Z,38.63
2023-04-27T11:12:59.633Z,38.35
2023-04-27T11:13:59.674Z,38.58
2023-04-27T11:14:59.792Z,38.81
2023-04-27T11:15:59.789Z,38.90
2023-04-27T11:16:59.866Z,38.91
2023-04-27T11:17:59.817Z,38.94
2023-04-27T11:18:59.881Z,38.88
2023-04-27T11:19:59.830Z,38.91
2023-04-27T11:20:59.879Z,38.93
2023-04-27T11:22:00.043Z,38.97
2023-04-27T11:22:59.928Z,38.96
2023-04-27T11:23:59.953Z,39.01
2023-04-27T11:25:00.026Z,39.01
2023-04-27T11:25:59.947Z,39.02
2023-04-27T11:27:00.041Z,39.03
2023-04-27T11:28:00.012Z,39.04
2023-04-27T11:29:00.051Z,39.02
2023-04-27T11:30:00.566Z,39.03
2023-04-27T11:31:01.092Z,39.01
2023-04-27T11:32:00.579Z,39.02
2023-04-27T11:33:00.207Z,39.06
2023-04-27T11:34:00.227Z,39.01
2023-04-27T11:35:00.278Z,38.93
2023-04-27T11:36:00.243Z,38.93
2023-04-27T11:37:10.776Z,38.89
2023-04-27T11:38:01.280Z,38.88
2023-04-27T11:39:00.343Z,38.84
2023-04-27T11:40:00.291Z,38.81
2023-04-27T11:41:00.281Z,38.77
2023-04-27T11:42:00.256Z,38.77
2023-04-27T11:43:00.268Z,38.74
2023-04-27T11:44:00.264Z,38.74
2023-04-27T11:45:00.243Z,38.76
2023-04-27T11:46:00.300Z,38.77
2023-04-27T11:47:00.311Z,38.74
2023-04-27T11:48:00.244Z,38.70
2023-04-27T11:49:00.192Z,38.69
2023-04-27T11:50:00.251Z,38.69
2023-04-27T11:51:00.193Z,38.73
2023-04-27T11:52:00.305Z,38.75
2023-04-27T11:53:00.175Z,38.73
2023-04-27T11:54:00.231Z,38.74
2023-04-27T11:55:00.230Z,38.74
2023-04-27T11:56:00.235Z,38.72
2023-04-27T11:57:00.307Z,38.72
2023-04-27T11:58:00.318Z,38.68
2023-04-27T11:59:00.377Z,38.74
2023-04-27T12:00:00.620Z,38.72
2023-04-27T12:01:00.451Z,38.68
2023-04-27T12:02:00.536Z,38.67
2023-04-27T12:03:00.621Z,38.70
2023-04-27T12:04:02.340Z,38.82
2023-04-27T12:05:00.888Z,38.84
2023-04-27T12:06:16.198Z,38.76
2023-04-27T12:07:01.669Z,38.73
2023-04-27T12:08:00.662Z,38.74
2023-04-27T12:09:00.624Z,38.80
2023-04-27T12:10:01.016Z,38.82
2023-04-27T12:11:00.624Z,38.83
2023-04-27T12:12:00.632Z,38.84
2023-04-27T12:13:00.612Z,38.78
2023-04-27T12:14:00.620Z,38.81
2023-04-27T12:15:00.661Z,38.80
2023-04-27T12:16:01.087Z,38.74
2023-04-27T12:17:00.601Z,38.71
2023-04-27T12:18:00.629Z,38.76
2023-04-27T12:19:00.611Z,38.77
2023-04-27T12:20:00.672Z,38.76
2023-04-27T12:21:03.022Z,38.78
2023-04-27T12:22:00.709Z,38.81
2023-04-27T12:23:00.712Z,38.75
2023-04-27T12:24:00.721Z,38.73
2023-04-27T12:25:00.724Z,38.74
2023-04-27T12:26:00.686Z,38.72
2023-04-27T12:27:00.688Z,38.74
2023-04-27T12:28:00.689Z,38.72
2023-04-27T12:29:00.660Z,38.73
2023-04-27T12:30:00.666Z,38.74
2023-04-27T12:31:00.670Z,38.70
2023-04-27T12:32:00.665Z,38.71
2023-04-27T12:33:00.798Z,38.69
2023-04-27T12:34:00.687Z,38.69
2023-04-27T12:35:00.655Z,38.68
2023-04-27T12:36:00.647Z,38.68
2023-04-27T12:37:00.611Z,38.71
2023-04-27T12:38:00.661Z,38.67
2023-04-27T12:39:00.623Z,38.66
2023-04-27T12:40:00.638Z,38.65
2023-04-27T12:41:00.605Z,38.64
2023-04-27T12:42:00.602Z,38.66
2023-04-27T12:43:01.202Z,38.66
2023-04-27T12:44:00.572Z,38.69
2023-04-27T12:45:00.566Z,38.65
2023-04-27T12:46:00.561Z,38.63
2023-04-27T12:47:00.559Z,38.63
2023-04-27T12:48:03.960Z,38.66
2023-04-27T12:49:00.527Z,38.69
2023-04-27T12:50:00.524Z,38.67
2023-04-27T12:51:00.550Z,38.66
2023-04-27T12:52:00.542Z,38.63
2023-04-27T12:53:00.558Z,38.62